createdAt,value
2017-01-15T00:00:25.075Z,0
2017-01-15T00:01:30.269Z,0
2017-01-15T00:02:35.460Z,0
2017-01-15T00:03:40.649Z,0
2017-01-15T00:04:46.815Z,0
2017-01-15T00:05:52.024Z,0
2017-01-15T00:06:58.196Z,0
2017-01-15T00:08:02.427Z,0
2017-01-15T00:09:06.652Z,0
2017-01-15T00:10:12.811Z,0
2017-01-15T00:11:18.011Z,0
2017-01-15T00:12:23.184Z,0
2017-01-15T00:13:28.351Z,0
2017-01-15T00:14:33.542Z,0
2017-01-15T00:15:38.740Z,0
2017-01-15T00:16:44.902Z,0
2017-01-15T00:17:51.066Z,0
2017-01-15T00:18:54.357Z,0
2017-01-15T00:20:00.523Z,0
2017-01-15T00:21:06.684Z,0
2017-01-15T00:22:11.914Z,0
2017-01-15T00:23:16.135Z,0
2017-01-15T00:24:22.297Z,0
2017-01-15T00:25:27.479Z,0
2017-01-15T00:26:32.652Z,0
2017-01-15T00:27:38.812Z,0
2017-01-15T00:28:44.972Z,0
2017-01-15T00:29:50.171Z,0
2017-01-15T00:30:56.344Z,0
2017-01-15T00:32:02.507Z,0
2017-01-15T00:33:08.674Z,0
2017-01-15T00:34:13.927Z,0
2017-01-15T00:35:19.091Z,0
2017-01-15T00:36:24.291Z,0
2017-01-15T00:37:30.470Z,0
2017-01-15T00:38:36.634Z,0
2017-01-15T00:39:42.823Z,0
2017-01-15T00:40:46.993Z,0
2017-01-15T00:41:53.160Z,0
2017-01-15T00:42:58.404Z,0
2017-01-15T00:44:03.580Z,0
2017-01-15T00:45:09.753Z,0
2017-01-15T00:46:13.958Z,0
2017-01-15T00:47:19.114Z,0
2017-01-15T00:48:24.327Z,0
2017-01-15T00:49:30.495Z,0
2017-01-15T00:50:35.676Z,0
2017-01-15T00:51:41.834Z,0
2017-01-15T00:52:46.997Z,0
2017-01-15T00:53:50.307Z,0
2017-01-15T00:54:54.539Z,0
2017-01-15T00:55:58.768Z,0
2017-01-15T00:57:03.967Z,0
2017-01-15T00:58:09.161Z,0
2017-01-15T00:59:14.436Z,0
2017-01-15T01:00:19.242Z,0
2017-01-15T01:01:24.439Z,0
2017-01-15T01:02:30.600Z,0
2017-01-15T01:03:35.910Z,0
2017-01-15T01:04:41.008Z,0
2017-01-15T01:05:46.211Z,0
2017-01-15T01:06:51.411Z,0
2017-01-15T01:07:56.603Z,0
2017-01-15T01:09:02.763Z,0
2017-01-15T01:10:07.966Z,0
2017-01-15T01:11:14.126Z,0
2017-01-15T01:12:19.426Z,0
2017-01-15T01:13:24.619Z,0
2017-01-15T01:14:30.822Z,0
2017-01-15T01:15:36.942Z,0
2017-01-15T01:16:43.106Z,0
2017-01-15T01:17:47.380Z,0
2017-01-15T01:18:53.587Z,0
2017-01-15T01:19:59.714Z,0
2017-01-15T01:21:04.906Z,0
2017-01-15T01:22:11.072Z,0
2017-01-15T01:23:15.302Z,0
2017-01-15T01:24:21.485Z,0
2017-01-15T01:25:27.644Z,0
2017-01-15T01:26:33.814Z,0
2017-01-15T01:27:39.087Z,0
2017-01-15T01:28:44.291Z,0
2017-01-15T01:29:49.480Z,0
2017-01-15T01:30:55.668Z,0
2017-01-15T01:32:00.833Z,0
2017-01-15T01:33:05.059Z,0
2017-01-15T01:34:09.304Z,0
2017-01-15T01:35:12.573Z,0
2017-01-15T01:36:17.866Z,0
2017-01-15T01:37:24.079Z,0
2017-01-15T01:38:29.272Z,0
2017-01-15T01:39:35.446Z,0
2017-01-15T01:40:41.612Z,0
2017-01-15T01:41:46.880Z,0
2017-01-15T01:42:51.082Z,0
2017-01-15T01:43:57.252Z,0
2017-01-15T01:45:02.445Z,0
2017-01-15T01:46:08.626Z,0
2017-01-15T01:47:13.816Z,0
2017-01-15T01:48:19.987Z,0
2017-01-15T01:49:26.162Z,0
2017-01-15T01:50:31.323Z,0
2017-01-15T01:51:35.564Z,0
2017-01-15T01:52:40.780Z,0
2017-01-15T01:53:45.974Z,0
2017-01-15T01:54:51.160Z,0
2017-01-15T01:55:56.457Z,0
2017-01-15T01:57:02.621Z,0
2017-01-15T01:58:06.816Z,0
2017-01-15T01:59:13.004Z,0
2017-01-15T02:00:18.210Z,0
2017-01-15T02:01:22.421Z,0
2017-01-15T02:02:27.613Z,0
2017-01-15T02:03:33.771Z,0
2017-01-15T02:04:39.024Z,0
2017-01-15T02:05:44.283Z,0
2017-01-15T02:06:48.516Z,0
2017-01-15T02:07:54.676Z,0
2017-01-15T02:09:00.841Z,0
2017-01-15T02:10:07.007Z,0
2017-01-15T02:11:12.202Z,0
2017-01-15T02:12:17.435Z,0
2017-01-15T02:13:22.567Z,0
2017-01-15T02:14:27.766Z,0
2017-01-15T02:16:40.089Z,0
2017-01-15T02:17:46.387Z,0
2017-01-15T02:18:50.733Z,0
2017-01-15T02:19:55.938Z,0
2017-01-15T02:21:01.137Z,0
2017-01-15T02:22:06.365Z,0
2017-01-15T02:23:11.529Z,0
2017-01-15T02:24:16.726Z,0
2017-01-15T02:25:21.962Z,0
2017-01-15T02:26:27.129Z,0
2017-01-15T02:27:32.349Z,0
2017-01-15T02:28:35.616Z,0
2017-01-15T02:29:41.829Z,0
2017-01-15T02:30:46.366Z,0
2017-01-15T02:31:51.565Z,0
2017-01-15T02:32:56.749Z,0
2017-01-15T02:34:02.975Z,0
2017-01-15T02:35:09.103Z,0
2017-01-15T02:36:11.392Z,0
2017-01-15T02:37:17.550Z,0
2017-01-15T02:39:27.094Z,0
2017-01-15T02:40:33.259Z,0
2017-01-15T02:41:36.518Z,0
2017-01-15T02:42:40.748Z,0
2017-01-15T02:43:44.987Z,0
2017-01-15T02:44:50.165Z,0
2017-01-15T02:45:56.443Z,0
2017-01-15T02:47:01.660Z,0
2017-01-15T02:48:06.812Z,0
2017-01-15T02:49:11.986Z,0
2017-01-15T02:50:17.153Z,0
2017-01-15T02:51:23.365Z,0
2017-01-15T02:52:28.163Z,0
2017-01-15T02:53:34.406Z,0
2017-01-15T02:54:40.566Z,0
2017-01-15T02:55:46.768Z,0
2017-01-15T02:56:51.938Z,0
2017-01-15T02:57:57.109Z,0
2017-01-15T02:59:01.339Z,0
2017-01-15T03:00:06.506Z,0
2017-01-15T03:01:12.708Z,0
2017-01-15T03:02:17.908Z,0
2017-01-15T03:03:22.134Z,0
2017-01-15T03:04:27.331Z,0
2017-01-15T03:05:32.525Z,0
2017-01-15T03:06:37.731Z,0
2017-01-15T03:07:41.935Z,0
2017-01-15T03:08:48.104Z,0
2017-01-15T03:09:52.337Z,0
2017-01-15T03:10:56.567Z,0
2017-01-15T03:12:01.740Z,0
2017-01-15T03:13:05.930Z,0
2017-01-15T03:14:11.126Z,0
2017-01-15T03:15:16.319Z,0
2017-01-15T03:16:21.513Z,0
2017-01-15T03:17:26.682Z,0
2017-01-15T03:18:31.884Z,0
2017-01-15T03:19:36.142Z,0
2017-01-15T03:20:42.359Z,0
2017-01-15T03:21:48.477Z,0
2017-01-15T03:22:53.681Z,0
2017-01-15T03:23:57.909Z,0
2017-01-15T03:25:04.065Z,0
2017-01-15T03:26:08.351Z,0
2017-01-15T03:27:13.551Z,0
2017-01-15T03:28:19.722Z,0
2017-01-15T03:29:25.885Z,0
2017-01-15T03:30:31.076Z,0
2017-01-15T03:31:36.246Z,0
2017-01-15T03:32:40.491Z,0
2017-01-15T03:33:45.685Z,0
2017-01-15T03:34:49.910Z,0
2017-01-15T03:35:55.110Z,0
2017-01-15T03:36:59.333Z,0
2017-01-15T03:38:04.530Z,0
2017-01-15T03:39:09.723Z,0
2017-01-15T03:40:14.917Z,0
2017-01-15T03:41:20.107Z,0
2017-01-15T03:42:25.276Z,0
2017-01-15T03:43:30.460Z,0
2017-01-15T03:44:34.684Z,0
2017-01-15T03:45:40.842Z,0
2017-01-15T03:46:47.015Z,0
2017-01-15T03:47:52.195Z,0
2017-01-15T03:48:58.360Z,0
2017-01-15T03:50:04.528Z,0
2017-01-15T03:51:09.731Z,0
2017-01-15T03:52:15.899Z,0
2017-01-15T03:53:21.067Z,0
2017-01-15T03:54:26.039Z,0
2017-01-15T03:55:32.209Z,0
2017-01-15T03:56:37.403Z,0
2017-01-15T03:57:43.587Z,0
2017-01-15T03:58:48.775Z,0
2017-01-15T03:59:53.970Z,0
2017-01-15T04:00:59.307Z,0
2017-01-15T04:02:05.474Z,0
2017-01-15T04:03:10.693Z,0
2017-01-15T04:04:16.847Z,0
2017-01-15T04:05:21.056Z,0
2017-01-15T04:06:27.220Z,0
2017-01-15T04:07:32.387Z,0
2017-01-15T04:08:37.591Z,0
2017-01-15T04:09:42.788Z,0
2017-01-15T04:10:47.988Z,0
2017-01-15T04:11:54.153Z,0
2017-01-15T04:13:00.323Z,0
2017-01-15T04:14:06.482Z,0
2017-01-15T04:15:10.726Z,0
2017-01-15T04:16:13.958Z,0
2017-01-15T04:17:19.166Z,0
2017-01-15T04:18:24.436Z,0
2017-01-15T04:19:29.637Z,0
2017-01-15T04:20:35.800Z,0
2017-01-15T04:21:41.001Z,0
2017-01-15T04:22:47.160Z,0
2017-01-15T04:23:52.352Z,0
2017-01-15T04:24:58.556Z,0
2017-01-15T04:26:03.772Z,0
2017-01-15T04:27:08.995Z,0
2017-01-15T04:28:14.189Z,0
2017-01-15T04:29:20.355Z,0
2017-01-15T04:30:26.513Z,0
2017-01-15T04:31:31.710Z,0
2017-01-15T04:32:34.941Z,0
2017-01-15T04:33:39.149Z,0
2017-01-15T04:34:45.306Z,0
2017-01-15T04:35:50.495Z,0
2017-01-15T04:36:54.751Z,0
2017-01-15T04:38:00.057Z,0
2017-01-15T04:39:05.257Z,0
2017-01-15T04:40:11.422Z,0
2017-01-15T04:41:14.689Z,0
2017-01-15T04:42:20.845Z,0
2017-01-15T04:43:27.011Z,0
2017-01-15T04:44:33.288Z,0
2017-01-15T04:45:37.526Z,0
2017-01-15T04:46:42.732Z,0
2017-01-15T04:47:48.895Z,0
2017-01-15T04:48:54.148Z,0
2017-01-15T04:50:00.532Z,0
2017-01-15T04:51:04.735Z,0
2017-01-15T04:52:10.902Z,0
2017-01-15T04:53:16.142Z,0
2017-01-15T04:54:20.371Z,0
2017-01-15T04:55:26.535Z,0
2017-01-15T04:56:32.715Z,0
2017-01-15T04:57:38.867Z,0
2017-01-15T04:58:44.039Z,0
2017-01-15T04:59:49.304Z,0
2017-01-15T05:00:54.493Z,0
2017-01-15T05:01:59.689Z,0
2017-01-15T05:03:03.929Z,0
2017-01-15T05:04:09.174Z,0
2017-01-15T05:05:15.364Z,0
2017-01-15T05:06:21.497Z,0
2017-01-15T05:07:26.694Z,0
2017-01-15T05:08:29.918Z,0
2017-01-15T05:09:35.112Z,0
2017-01-15T05:10:41.268Z,0
2017-01-15T05:11:46.460Z,0
2017-01-15T05:12:51.784Z,0
2017-01-15T05:13:55.983Z,0
2017-01-15T05:15:01.174Z,0
2017-01-15T05:16:07.330Z,0
2017-01-15T05:17:12.526Z,0
2017-01-15T05:18:17.725Z,0
2017-01-15T05:19:22.934Z,0
2017-01-15T05:20:29.099Z,0
2017-01-15T05:21:34.292Z,0
2017-01-15T05:22:38.641Z,0
2017-01-15T05:23:42.871Z,0
2017-01-15T05:24:48.044Z,0
2017-01-15T05:25:54.214Z,0
2017-01-15T05:27:00.408Z,0
2017-01-15T05:28:06.537Z,0
2017-01-15T05:29:12.716Z,0
2017-01-15T05:30:16.914Z,0
2017-01-15T05:31:20.145Z,0
2017-01-15T05:32:26.403Z,0
2017-01-15T05:33:31.620Z,0
2017-01-15T05:34:37.809Z,0
2017-01-15T05:35:41.991Z,0
2017-01-15T05:36:47.189Z,0
2017-01-15T05:37:53.357Z,0
2017-01-15T05:38:58.554Z,0
2017-01-15T05:40:04.717Z,0
2017-01-15T05:41:08.951Z,0
2017-01-15T05:42:13.170Z,0
2017-01-15T05:43:19.330Z,0
2017-01-15T05:44:24.634Z,0
2017-01-15T05:45:29.823Z,0
2017-01-15T05:46:35.054Z,0
2017-01-15T05:47:39.242Z,0
2017-01-15T05:48:45.403Z,0
2017-01-15T05:49:49.627Z,0
2017-01-15T05:50:54.805Z,0
2017-01-15T05:52:00.006Z,0
2017-01-15T05:53:06.158Z,0
2017-01-15T05:54:12.321Z,0
2017-01-15T05:55:17.520Z,0
2017-01-15T05:56:23.681Z,0
2017-01-15T05:57:29.837Z,0
2017-01-15T05:58:36.005Z,0
2017-01-15T05:59:41.164Z,0
2017-01-15T06:00:47.326Z,0
2017-01-15T06:01:52.500Z,0
2017-01-15T06:02:56.707Z,0
2017-01-15T06:04:01.895Z,0
2017-01-15T06:05:07.236Z,0
2017-01-15T06:06:12.394Z,0
2017-01-15T06:07:15.636Z,0
2017-01-15T06:08:21.802Z,0
2017-01-15T06:09:27.964Z,0
2017-01-15T06:10:32.158Z,0
2017-01-15T06:11:37.039Z,0
2017-01-15T06:12:42.280Z,0
2017-01-15T06:13:48.410Z,0
2017-01-15T06:14:54.571Z,0
2017-01-15T06:16:00.740Z,0
2017-01-15T06:17:06.021Z,0
2017-01-15T06:18:11.601Z,0
2017-01-15T06:19:16.804Z,0
2017-01-15T06:20:22.105Z,0
2017-01-15T06:21:28.330Z,0
2017-01-15T06:22:31.599Z,0
2017-01-15T06:23:34.872Z,0
2017-01-15T06:24:41.028Z,0
2017-01-15T06:25:44.281Z,0
2017-01-15T06:26:48.550Z,0
2017-01-15T06:27:52.747Z,0
2017-01-15T06:28:58.908Z,0
2017-01-15T06:30:04.175Z,0
2017-01-15T06:31:07.433Z,0
2017-01-15T06:32:12.630Z,0
2017-01-15T06:33:18.798Z,0
2017-01-15T06:34:24.956Z,0
2017-01-15T06:35:29.189Z,0
2017-01-15T06:36:34.368Z,0
2017-01-15T06:37:40.532Z,0
2017-01-15T06:38:44.757Z,0
2017-01-15T06:39:47.997Z,0
2017-01-15T06:40:53.204Z,0
2017-01-15T06:41:59.364Z,0
2017-01-15T06:43:02.699Z,0
2017-01-15T06:44:06.937Z,0
2017-01-15T06:45:12.134Z,0
2017-01-15T06:46:17.324Z,0
2017-01-15T06:47:23.483Z,0
2017-01-15T06:48:27.710Z,0
2017-01-15T06:49:33.874Z,0
2017-01-15T06:50:39.069Z,4
2017-01-15T06:51:45.232Z,4
2017-01-15T06:52:50.430Z,0
2017-01-15T06:53:56.652Z,0
2017-01-15T06:55:01.845Z,4
2017-01-15T06:56:08.009Z,4
2017-01-15T06:57:12.237Z,4
2017-01-15T06:58:18.412Z,4
2017-01-15T06:59:23.619Z,8
2017-01-15T07:00:26.881Z,8
2017-01-15T07:01:32.080Z,8
2017-01-15T07:02:38.244Z,8
2017-01-15T07:03:43.444Z,12
2017-01-15T07:04:47.661Z,8
2017-01-15T07:05:51.881Z,16
2017-01-15T07:06:58.046Z,16
2017-01-15T07:08:01.386Z,20
2017-01-15T07:09:06.668Z,20
2017-01-15T07:10:11.871Z,28
2017-01-15T07:11:18.029Z,28
2017-01-15T07:12:23.228Z,40
2017-01-15T07:13:28.501Z,44
2017-01-15T07:14:33.045Z,52
2017-01-15T07:15:37.253Z,60
2017-01-15T07:16:43.412Z,64
2017-01-15T07:17:49.582Z,76
2017-01-15T07:18:55.746Z,84
2017-01-15T07:20:00.917Z,92
2017-01-15T07:21:07.098Z,100
2017-01-15T07:22:13.261Z,116
2017-01-15T07:23:18.456Z,128
2017-01-15T07:24:22.824Z,140
2017-01-15T07:25:28.996Z,156
2017-01-15T07:26:35.151Z,168
2017-01-15T07:27:38.387Z,180
2017-01-15T07:28:44.566Z,200
2017-01-15T07:29:49.750Z,220
2017-01-15T07:30:52.993Z,240
2017-01-15T07:31:58.159Z,260
2017-01-15T07:33:04.321Z,280
2017-01-15T07:34:08.633Z,304
2017-01-15T07:35:14.814Z,332
2017-01-15T07:36:20.982Z,360
2017-01-15T07:37:25.189Z,388
2017-01-15T07:38:30.374Z,412
2017-01-15T07:39:35.616Z,444
2017-01-15T07:40:41.752Z,472
2017-01-15T07:41:45.983Z,504
2017-01-15T07:42:51.191Z,540
2017-01-15T07:43:57.372Z,584
2017-01-15T07:45:02.570Z,644
2017-01-15T07:46:08.740Z,728
2017-01-15T07:47:13.947Z,808
2017-01-15T07:48:20.116Z,868
2017-01-15T07:49:24.349Z,900
2017-01-15T07:50:28.633Z,932
2017-01-15T07:51:34.789Z,952
2017-01-15T07:52:39.997Z,980
2017-01-15T07:53:45.183Z,1004
2017-01-15T07:54:51.351Z,1048
2017-01-15T07:55:57.513Z,1096
2017-01-15T07:57:02.740Z,1140
2017-01-15T07:58:07.935Z,1196
2017-01-15T07:59:13.097Z,1272
2017-01-15T08:00:18.312Z,1368
2017-01-15T08:01:24.488Z,1476
2017-01-15T08:02:29.684Z,1568
2017-01-15T08:03:35.003Z,1664
2017-01-15T08:04:37.273Z,1652
2017-01-15T08:05:42.473Z,1696
2017-01-15T08:06:47.671Z,2352
2017-01-15T08:07:52.867Z,2712
2017-01-15T08:08:58.065Z,2408
2017-01-15T08:10:02.288Z,2908
2017-01-15T08:11:07.500Z,3452
2017-01-15T08:12:13.759Z,3608
2017-01-15T08:13:18.958Z,3868
2017-01-15T08:14:24.172Z,4152
2017-01-15T08:15:30.348Z,4468
2017-01-15T08:16:36.515Z,4780
2017-01-15T08:17:41.707Z,5100
2017-01-15T08:18:45.908Z,5352
2017-01-15T08:19:51.102Z,5608
2017-01-15T08:20:56.302Z,5828
2017-01-15T08:22:02.465Z,6004
2017-01-15T08:23:07.629Z,6192
2017-01-15T08:24:12.827Z,6164
2017-01-15T08:25:19.030Z,5488
2017-01-15T08:26:23.198Z,4632
2017-01-15T08:27:29.365Z,4040
2017-01-15T08:28:33.660Z,3824
2017-01-15T08:29:38.930Z,3696
2017-01-15T08:30:44.133Z,3704
2017-01-15T08:31:49.333Z,4816
2017-01-15T08:32:54.590Z,6096
2017-01-15T08:34:00.873Z,6032
2017-01-15T08:35:07.043Z,4224
2017-01-15T08:36:13.207Z,2612
2017-01-15T08:37:18.511Z,2236
2017-01-15T08:38:23.710Z,2068
2017-01-15T08:39:29.978Z,1948
2017-01-15T08:40:35.146Z,1908
2017-01-15T08:41:39.378Z,1972
2017-01-15T08:42:45.553Z,1932
2017-01-15T08:43:50.737Z,1904
2017-01-15T08:44:56.976Z,1868
2017-01-15T08:46:01.187Z,1984
2017-01-15T08:47:05.423Z,2288
2017-01-15T08:48:11.590Z,2656
2017-01-15T08:49:16.896Z,3156
2017-01-15T08:50:21.072Z,3724
2017-01-15T08:51:26.266Z,4016
2017-01-15T08:52:32.433Z,3692
2017-01-15T08:53:36.644Z,3276
2017-01-15T08:54:41.808Z,2876
2017-01-15T08:55:48.035Z,2428
2017-01-15T08:56:53.220Z,1976
2017-01-15T08:57:59.452Z,1656
2017-01-15T08:59:04.650Z,1416
2017-01-15T09:00:08.890Z,1212
2017-01-15T09:01:13.121Z,1084
2017-01-15T09:02:19.322Z,1072
2017-01-15T09:03:25.464Z,996
2017-01-15T09:04:30.676Z,972
2017-01-15T09:05:35.864Z,1168
2017-01-15T09:06:40.187Z,1296
2017-01-15T09:07:45.348Z,1528
2017-01-15T09:08:51.517Z,1672
2017-01-15T09:09:57.684Z,1852
2017-01-15T09:11:03.928Z,1992
2017-01-15T09:12:10.145Z,2024
2017-01-15T09:13:15.304Z,1928
2017-01-15T09:14:21.479Z,1976
2017-01-15T09:15:26.734Z,2104
2017-01-15T09:16:31.862Z,2200
2017-01-15T09:17:36.098Z,2176
2017-01-15T09:18:41.292Z,2200
2017-01-15T09:19:47.475Z,2280
2017-01-15T09:20:52.681Z,2416
2017-01-15T09:21:58.860Z,2644
2017-01-15T09:23:05.028Z,2848
2017-01-15T09:24:11.252Z,3120
2017-01-15T09:25:16.456Z,3560
2017-01-15T09:26:21.661Z,3964
2017-01-15T09:27:27.825Z,5968
2017-01-15T09:28:33.022Z,9384
2017-01-15T09:29:39.189Z,13424
2017-01-15T09:30:45.405Z,15424
2017-01-15T09:31:50.601Z,9440
2017-01-15T09:32:55.802Z,16032
2017-01-15T09:34:01.934Z,16032
2017-01-15T09:35:08.222Z,10832
2017-01-15T09:36:13.476Z,11236
2017-01-15T09:37:19.646Z,15040
2017-01-15T09:38:23.880Z,10676
2017-01-15T09:39:29.132Z,3284
2017-01-15T09:40:32.387Z,3000
2017-01-15T09:41:36.620Z,3352
2017-01-15T09:42:42.814Z,3900
2017-01-15T09:43:48.009Z,17536
2017-01-15T09:44:54.177Z,19296
2017-01-15T09:45:58.429Z,9036
2017-01-15T09:47:03.682Z,9092
2017-01-15T09:48:07.894Z,18880
2017-01-15T09:49:14.096Z,16000
2017-01-15T09:50:20.243Z,18944
2017-01-15T09:51:26.452Z,19392
2017-01-15T09:52:30.702Z,19904
2017-01-15T09:53:35.883Z,19840
2017-01-15T09:54:42.065Z,20320
2017-01-15T09:55:47.268Z,21152
2017-01-15T09:56:52.589Z,21952
2017-01-15T09:57:58.359Z,21888
2017-01-15T09:59:03.582Z,22688
2017-01-15T10:00:09.760Z,23616
2017-01-15T10:01:14.980Z,24288
2017-01-15T10:02:19.249Z,17344
2017-01-15T10:03:25.422Z,23776
2017-01-15T10:04:30.720Z,23392
2017-01-15T10:05:36.877Z,23200
2017-01-15T10:06:43.056Z,22976
2017-01-15T10:07:49.230Z,21472
2017-01-15T10:08:55.412Z,21664
2017-01-15T10:10:00.620Z,19584
2017-01-15T10:11:04.919Z,18368
2017-01-15T10:12:10.123Z,18912
2017-01-15T10:13:15.349Z,19200
2017-01-15T10:14:20.566Z,19040
2017-01-15T10:15:25.767Z,18592
2017-01-15T10:16:30.989Z,18720
2017-01-15T10:17:35.232Z,19424
2017-01-15T10:18:41.420Z,19840
2017-01-15T10:19:45.664Z,19712
2017-01-15T10:20:50.862Z,19424
2017-01-15T10:21:55.115Z,20256
2017-01-15T10:23:00.351Z,20480
2017-01-15T10:24:05.559Z,20736
2017-01-15T10:25:08.934Z,20864
2017-01-15T10:26:15.123Z,20864
2017-01-15T10:27:21.337Z,20960
2017-01-15T10:28:26.539Z,21536
2017-01-15T10:29:31.744Z,21856
2017-01-15T10:30:37.931Z,21824
2017-01-15T10:31:43.140Z,21696
2017-01-15T10:32:47.485Z,21696
2017-01-15T10:33:51.785Z,21696
2017-01-15T10:34:56.957Z,21280
2017-01-15T10:36:02.169Z,21536
2017-01-15T10:37:07.403Z,21344
2017-01-15T10:38:11.583Z,21120
2017-01-15T10:39:17.771Z,21408
2017-01-15T10:40:23.299Z,17664
2017-01-15T10:41:28.512Z,21312
2017-01-15T10:42:33.720Z,21056
2017-01-15T10:43:39.890Z,20800
2017-01-15T10:44:44.139Z,21888
2017-01-15T10:45:50.319Z,22432
2017-01-15T10:46:55.556Z,20576
2017-01-15T10:48:00.770Z,20544
2017-01-15T10:49:05.981Z,20448
2017-01-15T10:50:09.244Z,21056
2017-01-15T10:51:14.424Z,20896
2017-01-15T10:52:19.632Z,21152
2017-01-15T10:53:22.983Z,20928
2017-01-15T10:54:28.163Z,20864
2017-01-15T10:55:33.383Z,21216
2017-01-15T10:56:39.568Z,18848
2017-01-15T10:57:45.746Z,8616
2017-01-15T10:58:51.989Z,9140
2017-01-15T10:59:57.200Z,7940
2017-01-15T11:01:01.439Z,6640
2017-01-15T11:02:05.677Z,5900
2017-01-15T11:03:10.854Z,5704
2017-01-15T11:04:15.884Z,5620
2017-01-15T11:05:21.094Z,5624
2017-01-15T11:06:26.318Z,6700
2017-01-15T11:07:31.474Z,7468
2017-01-15T11:08:35.678Z,7536
2017-01-15T11:09:40.856Z,9032
2017-01-15T11:10:47.027Z,10028
2017-01-15T11:11:52.338Z,10424
2017-01-15T11:12:57.550Z,7088
2017-01-15T11:14:01.899Z,6144
2017-01-15T11:15:07.103Z,5156
2017-01-15T11:16:12.353Z,4916
2017-01-15T11:17:18.527Z,4900
2017-01-15T11:18:23.730Z,4568
2017-01-15T11:19:28.908Z,4428
2017-01-15T11:20:33.111Z,4728
2017-01-15T11:21:39.279Z,4976
2017-01-15T11:22:44.501Z,5168
2017-01-15T11:23:49.698Z,5420
2017-01-15T11:24:54.902Z,5556
2017-01-15T11:25:59.111Z,5740
2017-01-15T11:27:03.356Z,5688
2017-01-15T11:28:09.529Z,5512
2017-01-15T11:29:15.700Z,5224
2017-01-15T11:30:20.908Z,4808
2017-01-15T11:31:25.120Z,4488
2017-01-15T11:32:29.329Z,4268
2017-01-15T11:33:34.530Z,4060
2017-01-15T11:34:40.705Z,3968
2017-01-15T11:35:46.254Z,3756
2017-01-15T11:36:51.818Z,4128
2017-01-15T11:37:57.042Z,4580
2017-01-15T11:39:02.238Z,5044
2017-01-15T11:40:07.460Z,5544
2017-01-15T11:41:10.705Z,5984
2017-01-15T11:42:16.877Z,6208
2017-01-15T11:43:21.142Z,6384
2017-01-15T11:44:26.433Z,6696
2017-01-15T11:45:32.200Z,6980
2017-01-15T11:46:37.404Z,7256
2017-01-15T11:47:43.581Z,7428
2017-01-15T11:48:47.784Z,7400
2017-01-15T11:49:52.988Z,7284
2017-01-15T11:50:57.307Z,7052
2017-01-15T11:52:03.576Z,6984
2017-01-15T11:53:09.754Z,7160
2017-01-15T11:54:14.968Z,7344
2017-01-15T11:55:20.165Z,7112
2017-01-15T11:56:26.395Z,6560
2017-01-15T11:57:31.563Z,6140
2017-01-15T11:58:37.744Z,5800
2017-01-15T11:59:42.026Z,5596
2017-01-15T12:00:48.201Z,5520
2017-01-15T12:01:53.369Z,5404
2017-01-15T12:02:58.631Z,5140
2017-01-15T12:04:03.840Z,4904
2017-01-15T12:05:10.043Z,4756
2017-01-15T12:06:15.307Z,4692
2017-01-15T12:07:20.525Z,4624
2017-01-15T12:08:25.706Z,4556
2017-01-15T12:09:31.872Z,4540
2017-01-15T12:10:36.131Z,4544
2017-01-15T12:11:41.305Z,4532
2017-01-15T12:12:46.503Z,4496
2017-01-15T12:13:52.683Z,4488
2017-01-15T12:14:57.888Z,4416
2017-01-15T12:16:02.121Z,4256
2017-01-15T12:17:08.302Z,4080
2017-01-15T12:18:13.496Z,3900
2017-01-15T12:19:17.782Z,3836
2017-01-15T12:20:23.013Z,3832
2017-01-15T12:21:28.216Z,3860
2017-01-15T12:22:32.419Z,3804
2017-01-15T12:23:38.672Z,3740
2017-01-15T12:24:43.842Z,3668
2017-01-15T12:25:50.041Z,3660
2017-01-15T12:26:55.233Z,3596
2017-01-15T12:28:01.399Z,3528
2017-01-15T12:29:04.648Z,3516
2017-01-15T12:30:09.852Z,3584
2017-01-15T12:31:15.100Z,3636
2017-01-15T12:32:20.310Z,3644
2017-01-15T12:33:26.473Z,3664
2017-01-15T12:34:31.678Z,3624
2017-01-15T12:35:37.875Z,3420
2017-01-15T12:36:44.044Z,3184
2017-01-15T12:37:50.348Z,2976
2017-01-15T12:38:55.196Z,2800
2017-01-15T12:40:01.370Z,2696
2017-01-15T12:41:06.573Z,2636
2017-01-15T12:42:11.734Z,2616
2017-01-15T12:43:16.944Z,2636
2017-01-15T12:44:23.118Z,2684
2017-01-15T12:45:28.329Z,2744
2017-01-15T12:46:32.537Z,2772
2017-01-15T12:47:37.735Z,2832
2017-01-15T12:48:43.922Z,2948
2017-01-15T12:49:50.102Z,3116
2017-01-15T12:50:55.311Z,3332
2017-01-15T12:52:01.466Z,3584
2017-01-15T12:53:07.651Z,3764
2017-01-15T12:54:12.862Z,3904
2017-01-15T12:55:17.168Z,4012
2017-01-15T12:56:22.263Z,4036
2017-01-15T12:57:26.508Z,3948
2017-01-15T12:58:32.678Z,3788
2017-01-15T12:59:37.889Z,3612
2017-01-15T13:00:43.098Z,3352
2017-01-15T13:01:48.370Z,3140
2017-01-15T13:02:53.506Z,2912
2017-01-15T13:03:57.767Z,2736
2017-01-15T13:05:02.994Z,2652
2017-01-15T13:06:09.162Z,2588
2017-01-15T13:07:15.300Z,2552
2017-01-15T13:08:20.501Z,2560
2017-01-15T13:09:24.751Z,2544
2017-01-15T13:10:29.919Z,2468
2017-01-15T13:11:35.113Z,2456
2017-01-15T13:12:39.334Z,2392
2017-01-15T13:13:44.589Z,2344
2017-01-15T13:14:50.712Z,2244
2017-01-15T13:15:54.951Z,2164
2017-01-15T13:17:01.151Z,2108
2017-01-15T13:18:06.322Z,2076
2017-01-15T13:19:09.560Z,2048
2017-01-15T13:20:14.773Z,2016
2017-01-15T13:21:19.157Z,2004
2017-01-15T13:22:24.653Z,2008
2017-01-15T13:23:30.829Z,2004
2017-01-15T13:24:35.139Z,1988
2017-01-15T13:25:40.360Z,2028
2017-01-15T13:26:46.496Z,2084
2017-01-15T13:27:50.746Z,2056
2017-01-15T13:28:55.995Z,2040
2017-01-15T13:30:00.191Z,2076
2017-01-15T13:31:05.402Z,2116
2017-01-15T13:32:09.603Z,2124
2017-01-15T13:33:14.813Z,2180
2017-01-15T13:34:20.981Z,2180
2017-01-15T13:35:27.147Z,2184
2017-01-15T13:36:32.445Z,2232
2017-01-15T13:37:38.625Z,2228
2017-01-15T13:38:44.797Z,2208
2017-01-15T13:39:51.043Z,2188
2017-01-15T13:40:55.356Z,2164
2017-01-15T13:42:00.536Z,2132
2017-01-15T13:43:05.801Z,2104
2017-01-15T13:44:11.972Z,2104
2017-01-15T13:45:16.286Z,2096
2017-01-15T13:47:28.757Z,2068
2017-01-15T13:48:34.928Z,2108
2017-01-15T13:49:39.899Z,2108
2017-01-15T13:50:46.062Z,2104
2017-01-15T13:51:51.264Z,2112
2017-01-15T13:52:55.489Z,2108
2017-01-15T13:54:01.748Z,2096
2017-01-15T13:55:07.907Z,2088
2017-01-15T13:56:13.112Z,2084
2017-01-15T13:57:18.311Z,2076
2017-01-15T13:58:22.553Z,2056
2017-01-15T13:59:26.780Z,2020
2017-01-15T14:00:32.002Z,2004
2017-01-15T14:01:36.252Z,1996
2017-01-15T14:02:42.429Z,2000
2017-01-15T14:03:47.634Z,2008
2017-01-15T14:04:51.864Z,2012
2017-01-15T14:05:56.195Z,2000
2017-01-15T14:07:01.383Z,1996
2017-01-15T14:08:05.650Z,1988
2017-01-15T14:09:10.887Z,1972
2017-01-15T14:10:16.130Z,1968
2017-01-15T14:11:21.339Z,1964
2017-01-15T14:12:27.542Z,1952
2017-01-15T14:13:33.682Z,1952
2017-01-15T14:14:39.616Z,1964
2017-01-15T14:15:44.813Z,1976
2017-01-15T14:16:50.014Z,1980
2017-01-15T14:17:56.208Z,1984
2017-01-15T14:19:01.373Z,1996
2017-01-15T14:20:06.692Z,2000
2017-01-15T14:21:12.861Z,2004
2017-01-15T14:22:19.033Z,2020
2017-01-15T14:23:24.239Z,2020
2017-01-15T14:24:28.465Z,2004
2017-01-15T14:25:34.621Z,2004
2017-01-15T14:26:40.787Z,2004
2017-01-15T14:27:46.959Z,2000
2017-01-15T14:28:52.192Z,1984
2017-01-15T14:29:56.427Z,1948
2017-01-15T14:31:01.625Z,1908
2017-01-15T14:32:06.809Z,1868
2017-01-15T14:33:13.006Z,1840
2017-01-15T14:34:19.128Z,1820
2017-01-15T14:35:23.368Z,1796
2017-01-15T14:36:28.591Z,1772
2017-01-15T14:37:33.799Z,1748
2017-01-15T14:38:38.020Z,1716
2017-01-15T14:39:44.227Z,1688
2017-01-15T14:40:49.433Z,1652
2017-01-15T14:41:54.610Z,1632
2017-01-15T14:42:59.808Z,1604
2017-01-15T14:44:05.976Z,1576
2017-01-15T14:45:12.146Z,1556
2017-01-15T14:46:17.361Z,1532
2017-01-15T14:47:21.570Z,1512
2017-01-15T14:48:27.744Z,1504
2017-01-15T14:49:33.908Z,1492
2017-01-15T14:50:40.086Z,1476
2017-01-15T14:51:44.323Z,1452
2017-01-15T14:52:49.589Z,1424
2017-01-15T14:53:55.748Z,1396
2017-01-15T14:55:01.557Z,1372
2017-01-15T14:56:05.832Z,1352
2017-01-15T14:57:11.073Z,1332
2017-01-15T14:58:15.302Z,1308
2017-01-15T14:59:20.483Z,1288
2017-01-15T15:00:26.685Z,1256
2017-01-15T15:01:31.858Z,1216
2017-01-15T15:02:38.033Z,1188
2017-01-15T15:03:44.205Z,1176
2017-01-15T15:04:49.412Z,1160
2017-01-15T15:05:54.620Z,1128
2017-01-15T15:07:00.924Z,1096
2017-01-15T15:08:07.111Z,1064
2017-01-15T15:09:13.258Z,1040
2017-01-15T15:10:18.460Z,1028
2017-01-15T15:11:23.662Z,1008
2017-01-15T15:12:29.850Z,992
2017-01-15T15:13:35.028Z,976